createdAt,value
2022-10-07T00:04:02.715Z,98799.13
2022-10-07T00:08:05.730Z,98800.56
2022-10-07T00:12:11.533Z,98800.00
2022-10-07T00:16:17.526Z,98796.44
2022-10-07T00:20:21.369Z,98789.25
2022-10-07T00:24:24.363Z,98781.78
2022-10-07T00:28:29.583Z,98787.38
2022-10-07T00:32:32.635Z,98779.22
2022-10-07T00:36:38.001Z,98777.00
2022-10-07T00:40:41.637Z,98767.88
2022-10-07T00:44:48.030Z,98767.28
2022-10-07T00:48:51.405Z,98760.09
2022-10-07T00:52:58.449Z,98758.16
2022-10-07T00:57:01.704Z,98757.16
2022-10-07T01:01:07.124Z,98752.59
2022-10-07T01:05:14.369Z,98743.91
2022-10-07T01:09:18.125Z,98730.84
2022-10-07T01:17:33.850Z,98717.59
2022-10-07T01:21:44.529Z,98716.59
2022-10-07T01:26:19.775Z,98705.81
2022-10-07T01:30:24.346Z,98702.06
2022-10-07T01:34:28.407Z,98701.28
2022-10-07T01:38:33.918Z,98694.38
2022-10-07T01:42:38.011Z,98691.75
2022-10-07T01:46:44.872Z,98691.09
2022-10-07T01:50:50.505Z,98689.97
2022-10-07T01:55:16.826Z,98688.34
2022-10-07T01:59:35.123Z,98672.63
2022-10-07T02:03:59.229Z,98665.91
2022-10-07T02:08:14.281Z,98653.72
2022-10-07T02:12:25.363Z,98662.22
2022-10-07T02:16:34.636Z,98655.66
2022-10-07T02:20:42.157Z,98656.81
2022-10-07T02:24:47.757Z,98654.63
2022-10-07T02:28:55.030Z,98658.53
2022-10-07T02:33:03.975Z,98649.19
2022-10-07T02:37:17.288Z,98640.81
2022-10-07T02:41:34.446Z,98640.16
2022-10-07T02:45:46.760Z,98629.03
2022-10-07T02:49:53.393Z,98628.66
2022-10-07T02:54:01.229Z,98623.06
2022-10-07T02:58:07.639Z,98621.03
2022-10-07T03:02:19.459Z,98629.34
2022-10-07T03:06:25.274Z,98628.84
2022-10-07T03:10:30.428Z,98624.72
2022-10-07T03:14:35.856Z,98625.03
2022-10-07T03:18:39.687Z,98623.38
2022-10-07T03:22:43.781Z,98612.13
2022-10-07T03:26:48.975Z,98616.50
2022-10-07T03:30:52.742Z,98613.91
2022-10-07T03:34:56.692Z,98619.25
2022-10-07T03:38:59.794Z,98621.19
2022-10-07T03:43:05.175Z,98614.31
2022-10-07T03:47:10.665Z,98609.09
2022-10-07T03:51:14.516Z,98607.69
2022-10-07T03:55:17.800Z,98604.31
2022-10-07T03:59:23.201Z,98595.72
2022-10-07T04:03:26.417Z,98604.78
2022-10-07T04:07:30.066Z,98607.19
2022-10-07T04:11:33.297Z,98593.13
2022-10-07T04:15:40.821Z,98594.53
2022-10-07T04:19:44.024Z,98590.16
2022-10-07T04:23:46.972Z,98584.78
2022-10-07T04:27:54.391Z,98574.84
2022-10-07T04:31:58.899Z,98581.94
2022-10-07T04:36:06.253Z,98580.31
2022-10-07T04:40:10.457Z,98569.53
2022-10-07T04:44:14.008Z,98565.31
2022-10-07T04:48:20.437Z,98574.03
2022-10-07T04:52:23.948Z,98573.38
2022-10-07T04:56:28.536Z,98575.53
2022-10-07T05:00:32.413Z,98571.59
2022-10-07T05:04:37.230Z,98574.56
2022-10-07T05:08:43.893Z,98567.34
2022-10-07T05:12:46.934Z,98575.56
2022-10-07T05:16:50.248Z,98570.81
2022-10-07T05:20:55.451Z,98571.94
2022-10-07T05:24:59.412Z,98570.84
2022-10-07T05:29:02.502Z,98566.06
2022-10-07T05:33:06.096Z,98563.94
2022-10-07T05:37:11.048Z,98565.41
2022-10-07T05:41:14.304Z,98566.88
2022-10-07T05:45:18.446Z,98571.00
2022-10-07T05:49:22.085Z,98562.94
2022-10-07T05:53:26.961Z,98560.84
2022-10-07T05:57:30.579Z,98560.69
2022-10-07T06:01:34.572Z,98557.88
2022-10-07T06:05:37.633Z,98562.13
2022-10-07T06:09:59.710Z,98567.06
2022-10-07T06:14:03.171Z,98571.31
2022-10-07T06:18:06.620Z,98579.03
2022-10-07T06:22:09.728Z,98585.94
2022-10-07T06:26:15.043Z,98579.53
2022-10-07T06:30:18.192Z,98577.06
2022-10-07T06:34:21.812Z,98585.09
2022-10-07T06:38:25.294Z,98582.66
2022-10-07T06:42:29.696Z,98573.94
2022-10-07T06:46:33.146Z,98584.28
2022-10-07T06:50:36.241Z,98579.53
2022-10-07T06:54:39.753Z,98580.84
2022-10-07T06:58:44.599Z,98575.25
2022-10-07T07:02:48.225Z,98571.66
2022-10-07T07:06:52.110Z,98574.44
2022-10-07T07:10:55.407Z,98560.16
2022-10-07T07:15:00.872Z,98569.72
2022-10-07T07:19:07.406Z,98572.63
2022-10-07T07:23:11.559Z,98568.69
2022-10-07T07:27:15.397Z,98571.66
2022-10-07T07:31:19.817Z,98575.25
2022-10-07T07:35:23.016Z,98570.00
2022-10-07T07:39:26.633Z,98568.34
2022-10-07T07:43:29.898Z,98564.66
2022-10-07T07:47:36.171Z,98569.09
2022-10-07T07:51:39.718Z,98563.16
2022-10-07T07:55:53.518Z,98557.22
2022-10-07T07:59:57.250Z,98549.63
2022-10-07T08:04:02.941Z,98549.78
2022-10-07T08:08:05.951Z,98549.25
2022-10-07T08:12:09.856Z,98547.78
2022-10-07T08:16:15.212Z,98543.47
2022-10-07T08:20:19.912Z,98544.09
2022-10-07T08:24:25.553Z,98536.81
2022-10-07T08:28:29.280Z,98538.75
2022-10-07T08:32:32.824Z,98530.28
2022-10-07T08:36:37.689Z,98536.16
2022-10-07T08:40:48.878Z,98536.72
2022-10-07T08:44:53.078Z,98540.50
2022-10-07T08:49:00.390Z,98531.25
2022-10-07T08:53:09.074Z,98525.81
2022-10-07T08:57:20.551Z,98521.16
2022-10-07T09:01:37.838Z,98521.34
2022-10-07T09:05:45.863Z,98516.66
2022-10-07T09:09:56.547Z,98521.69
2022-10-07T09:14:03.870Z,98518.78
2022-10-07T09:18:18.189Z,98514.75
2022-10-07T09:22:23.849Z,98502.50
2022-10-07T09:26:33.601Z,98492.53
2022-10-07T09:30:37.128Z,98489.19
2022-10-07T09:34:42.584Z,98490.97
2022-10-07T09:38:48.434Z,98493.13
2022-10-07T09:42:52.903Z,98499.22
2022-10-07T09:47:00.230Z,98494.47
2022-10-07T09:51:18.070Z,98497.53
2022-10-07T09:55:37.859Z,98484.97
2022-10-07T09:59:42.356Z,98490.97
2022-10-07T10:03:45.946Z,98489.03
2022-10-07T10:07:56.228Z,98480.59
2022-10-07T10:12:14.889Z,98475.44
2022-10-07T10:16:36.782Z,98471.16
2022-10-07T10:20:44.106Z,98466.44
2022-10-07T10:25:04.828Z,98461.63
2022-10-07T10:29:18.850Z,98455.50
2022-10-07T10:33:37.761Z,98450.84
2022-10-07T10:38:00.106Z,98449.00
2022-10-07T10:42:09.673Z,98451.44
2022-10-07T10:46:32.938Z,98449.00
2022-10-07T10:50:51.561Z,98441.25
2022-10-07T10:55:45.839Z,98435.56
2022-10-07T11:00:05.446Z,98436.72
2022-10-07T11:04:39.619Z,98425.78
2022-10-07T11:08:45.360Z,98417.66
2022-10-07T11:12:54.819Z,98410.97
2022-10-07T11:17:04.006Z,98404.44
2022-10-07T11:21:13.246Z,98401.00
2022-10-07T11:25:28.545Z,98402.44
2022-10-07T11:29:42.019Z,98398.63
2022-10-07T11:33:52.024Z,98397.03
2022-10-07T11:38:02.016Z,98390.56
2022-10-07T11:42:14.672Z,98382.66
2022-10-07T11:46:22.260Z,98376.16
2022-10-07T11:50:31.888Z,98374.88
2022-10-07T11:54:43.471Z,98366.13
2022-10-07T11:58:57.783Z,98361.22
2022-10-07T12:03:14.641Z,98358.19
2022-10-07T12:07:52.335Z,98351.28
2022-10-07T12:11:58.051Z,98344.53
2022-10-07T12:16:44.317Z,98337.59
2022-10-07T12:20:58.829Z,98339.84
2022-10-07T12:25:32.792Z,98333.91
2022-10-07T12:29:50.370Z,98325.41
2022-10-07T12:34:01.869Z,98323.75
2022-10-07T12:38:06.216Z,98316.44
2022-10-07T12:42:14.495Z,98311.84
2022-10-07T12:46:21.146Z,98310.22
2022-10-07T12:50:29.029Z,98308.56
2022-10-07T12:54:37.945Z,98307.13
2022-10-07T12:59:26.805Z,98298.81
2022-10-07T13:04:14.461Z,98293.38
2022-10-07T13:08:51.402Z,98285.94
2022-10-07T13:12:56.915Z,98291.28
2022-10-07T13:17:05.574Z,98286.03
2022-10-07T13:21:17.407Z,98276.53
2022-10-07T13:25:23.810Z,98275.13
2022-10-07T13:29:31.517Z,98266.59
2022-10-07T13:33:34.902Z,98266.19
2022-10-07T13:37:39.954Z,98261.31
2022-10-07T13:41:48.148Z,98261.09
2022-10-07T13:45:51.206Z,98251.97
2022-10-07T13:49:55.953Z,98246.69
2022-10-07T13:54:01.505Z,98244.81
2022-10-07T13:58:07.676Z,98242.63
2022-10-07T14:02:16.019Z,98237.72
2022-10-07T14:06:38.237Z,98228.19
2022-10-07T14:10:52.543Z,98221.25
2022-10-07T14:15:03.870Z,98224.69
2022-10-07T14:19:07.279Z,98217.19
2022-10-07T14:23:24.072Z,98214.31
2022-10-07T14:27:42.634Z,98209.22
2022-10-07T14:32:19.034Z,98200.69
2022-10-07T14:36:24.189Z,98197.19
2022-10-07T14:40:27.176Z,98187.63
2022-10-07T14:44:31.276Z,98177.84
2022-10-07T14:48:36.563Z,98175.16
2022-10-07T14:52:45.078Z,98175.16
2022-10-07T14:56:48.688Z,98165.97
2022-10-07T15:00:53.253Z,98165.56
2022-10-07T15:04:58.325Z,98167.38
2022-10-07T15:09:01.775Z,98164.09
2022-10-07T15:13:11.060Z,98154.50
2022-10-07T15:17:16.272Z,98154.47
2022-10-07T15:21:21.038Z,98156.44
2022-10-07T15:25:24.577Z,98152.75
2022-10-07T15:29:28.340Z,98151.63
2022-10-07T15:33:31.609Z,98149.91
2022-10-07T15:37:36.103Z,98147.38
2022-10-07T15:41:41.101Z,98145.66
2022-10-07T15:45:47.069Z,98150.63
2022-10-07T15:49:50.307Z,98152.13
2022-10-07T15:53:55.379Z,98150.03
2022-10-07T15:57:59.565Z,98144.22
2022-10-07T16:02:03.932Z,98149.00
2022-10-07T16:06:10.353Z,98135.13
2022-10-07T16:10:15.350Z,98143.97
2022-10-07T16:14:19.026Z,98135.38
2022-10-07T16:18:22.024Z,98134.66
2022-10-07T16:22:25.958Z,98143.66
2022-10-07T16:26:31.972Z,98136.91
2022-10-07T16:30:45.410Z,98141.47
2022-10-07T16:34:48.927Z,98139.09
2022-10-07T16:38:53.438Z,98137.78
2022-10-07T16:43:00.272Z,98131.72
2022-10-07T16:47:03.869Z,98136.09
2022-10-07T16:51:09.856Z,98131.59
2022-10-07T16:55:14.065Z,98133.09
2022-10-07T16:59:23.193Z,98135.28
2022-10-07T17:03:27.154Z,98139.09
2022-10-07T17:07:30.797Z,98140.44
2022-10-07T17:11:35.677Z,98150.31
2022-10-07T17:15:42.374Z,98149.84
2022-10-07T17:19:45.874Z,98152.56
2022-10-07T17:23:49.174Z,98148.88
2022-10-07T17:27:52.620Z,98150.19
2022-10-07T17:31:57.265Z,98155.00
2022-10-07T17:36:07.809Z,98149.09
2022-10-07T17:40:11.897Z,98153.91
2022-10-07T17:44:16.243Z,98152.81
2022-10-07T17:48:21.099Z,98153.78
2022-10-07T17:52:27.513Z,98145.47
2022-10-07T17:56:32.803Z,98148.28
2022-10-07T18:05:01.941Z,98147.78
2022-10-07T18:09:06.996Z,98149.78
2022-10-07T18:13:28.777Z,98144.25
2022-10-07T18:17:32.132Z,98139.53
2022-10-07T18:21:36.701Z,98137.41
2022-10-07T18:25:40.438Z,98134.31
2022-10-07T18:29:43.904Z,98134.66
2022-10-07T18:33:47.036Z,98127.31
2022-10-07T18:37:54.251Z,98117.06
2022-10-07T18:41:58.506Z,98125.56
2022-10-07T18:46:03.615Z,98119.03
